Time;durP1;ratioP1;P1;durP2;ratioP2;P2;SDS_P1;SDS_P2;PMS_P1;PMS_P2;Temp;Humidity;BMP_temperature;BMP_pressure;BME280_temperature;BME280_humidity;BME280_pressure;Samples;Min_cycle;Max_cycle;Signal;HPM_P1;HPM_P2
2024/01/29 00:01:32;;;;;;;16.85;10.45;;;;;;;;;;4972307;28;20071;-77
2024/01/29 00:03:58;;;;;;;17.40;10.25;;;;;;;;;;4967328;28;20043;-76
2024/01/29 00:06:25;;;;;;;18.13;11.02;;;;;;;;;;4969233;28;20035;-76
2024/01/29 00:08:52;;;;;;;15.77;9.80;;;;;;;;;;4966910;28;20077;-77
2024/01/29 00:11:19;;;;;;;18.30;11.05;;;;;;;;;;4968232;28;20298;-77
2024/01/29 00:13:46;;;;;;;16.63;10.85;;;;;;;;;;4958040;28;20053;-76
2024/01/29 00:16:15;;;;;;;18.15;10.57;;;;;;;;;;4974402;28;20042;-76
2024/01/29 00:18:41;;;;;;;14.85;9.50;;;;;;;;;;4964607;28;20039;-77
2024/01/29 00:21:07;;;;;;;19.65;10.07;;;;;;;;;;4967368;28;20173;-77
2024/01/29 00:23:33;;;;;;;16.17;10.63;;;;;;;;;;4965464;28;20027;-76
2024/01/29 00:25:59;;;;;;;17.33;10.65;;;;;;;;;;4968512;28;20035;-75
2024/01/29 00:28:25;;;;;;;20.17;10.13;;;;;;;;;;4965935;28;20040;-75
2024/01/29 00:30:52;;;;;;;20.13;11.30;;;;;;;;;;4968278;28;20165;-76
2024/01/29 00:33:19;;;;;;;18.08;10.20;;;;;;;;;;4961425;28;20019;-76
2024/01/29 00:35:45;;;;;;;18.05;10.65;;;;;;;;;;4967631;28;20061;-75
2024/01/29 00:38:11;;;;;;;17.58;11.07;;;;;;;;;;4966378;28;20023;-76
2024/01/29 00:40:37;;;;;;;13.85;9.40;;;;;;;;;;4965158;28;20503;-76
2024/01/29 00:43:04;;;;;;;18.38;10.57;;;;;;;;;;4965058;28;20043;-76
2024/01/29 00:45:30;;;;;;;18.40;9.98;;;;;;;;;;4963228;28;20030;-76
2024/01/29 00:47:56;;;;;;;14.23;9.50;;;;;;;;;;4962353;28;20019;-76
2024/01/29 00:50:22;;;;;;;19.15;10.40;;;;;;;;;;4968649;28;20034;-75
2024/01/29 00:52:48;;;;;;;15.27;9.52;;;;;;;;;;4965726;28;20027;-76
2024/01/29 00:55:15;;;;;;;15.73;9.63;;;;;;;;;;4965473;28;20039;-78
2024/01/29 00:57:41;;;;;;;14.07;9.30;;;;;;;;;;4967306;28;20046;-76
2024/01/29 01:00:08;;;;;;;13.27;8.95;;;;;;;;;;4965359;28;20077;-76
2024/01/29 01:02:38;;;;;;;13.70;8.57;;;;;;;;;;4966892;28;20035;-77
2024/01/29 01:05:04;;;;;;;17.90;9.57;;;;;;;;;;4967480;28;20030;-75
2024/01/29 01:07:30;;;;;;;16.83;9.38;;;;;;;;;;4968188;28;20067;-76
2024/01/29 01:09:56;;;;;;;15.98;9.23;;;;;;;;;;4967884;28;20038;-76
2024/01/29 01:12:22;;;;;;;18.25;8.50;;;;;;;;;;4962271;28;20530;-76
2024/01/29 01:14:48;;;;;;;15.10;8.63;;;;;;;;;;4965860;28;20110;-78
2024/01/29 01:17:15;;;;;;;13.70;8.32;;;;;;;;;;4964812;28;20038;-76
2024/01/29 01:19:41;;;;;;;15.75;9.50;;;;;;;;;;4965653;28;20396;-76
2024/01/29 01:22:07;;;;;;;16.42;8.98;;;;;;;;;;4965861;28;20070;-75
2024/01/29 01:24:33;;;;;;;16.20;9.25;;;;;;;;;;4966225;28;20041;-76
2024/01/29 01:27:00;;;;;;;17.67;9.35;;;;;;;;;;4990055;28;20031;-77
2024/01/29 01:29:26;;;;;;;12.35;8.10;;;;;;;;;;4964666;28;20086;-75
2024/01/29 01:31:52;;;;;;;16.83;9.20;;;;;;;;;;4966199;28;20031;-75
2024/01/29 01:34:18;;;;;;;24.63;9.20;;;;;;;;;;4975288;28;20058;-75
2024/01/29 01:36:44;;;;;;;12.65;8.77;;;;;;;;;;4994125;28;20050;-76
2024/01/29 01:39:11;;;;;;;20.50;9.10;;;;;;;;;;4966758;28;20123;-76
2024/01/29 01:41:37;;;;;;;17.40;8.95;;;;;;;;;;4966245;28;20045;-76
2024/01/29 01:44:03;;;;;;;13.40;8.73;;;;;;;;;;4968251;28;20035;-76
2024/01/29 01:46:29;;;;;;;15.07;8.90;;;;;;;;;;4961026;28;20031;-76
2024/01/29 01:48:57;;;;;;;13.63;8.80;;;;;;;;;;4965564;28;20394;-76
2024/01/29 01:51:23;;;;;;;13.25;8.57;;;;;;;;;;4965964;28;20039;-77
2024/01/29 01:53:57;;;;;;;13.68;8.93;;;;;;;;;;4965673;28;20038;-75
2024/01/29 01:56:23;;;;;;;15.02;9.30;;;;;;;;;;4945593;28;20496;-76
2024/01/29 01:58:50;;;;;;;16.15;8.65;;;;;;;;;;4963177;28;20043;-76
2024/01/29 02:01:16;;;;;;;15.68;8.60;;;;;;;;;;4964392;28;20053;-75
2024/01/29 02:03:43;;;;;;;15.18;9.32;;;;;;;;;;4951382;28;20118;-76
2024/01/29 02:06:09;;;;;;;15.52;8.75;;;;;;;;;;4967607;28;20081;-76
2024/01/29 02:08:36;;;;;;;15.00;9.27;;;;;;;;;;4965418;28;20039;-77
2024/01/29 02:11:02;;;;;;;15.07;8.98;;;;;;;;;;4963884;28;20032;-76
2024/01/29 02:13:28;;;;;;;16.73;9.30;;;;;;;;;;4965497;28;20077;-76
2024/01/29 02:15:55;;;;;;;13.32;8.70;;;;;;;;;;4976191;28;20027;-76
2024/01/29 02:18:21;;;;;;;14.05;8.95;;;;;;;;;;4960136;28;20054;-76
2024/01/29 02:20:47;;;;;;;13.32;8.80;;;;;;;;;;4967466;28;20097;-76
2024/01/29 02:23:13;;;;;;;15.13;10.05;;;;;;;;;;4964913;28;20043;-77
2024/01/29 02:25:39;;;;;;;16.08;10.05;;;;;;;;;;4990719;28;20070;-76
2024/01/29 02:28:05;;;;;;;16.17;9.35;;;;;;;;;;4965623;28;20125;-77
2024/01/29 02:30:32;;;;;;;15.50;9.52;;;;;;;;;;4974148;28;20031;-76
2024/01/29 02:32:58;;;;;;;19.10;9.55;;;;;;;;;;4990977;28;20035;-76
2024/01/29 02:35:24;;;;;;;15.93;9.70;;;;;;;;;;4961731;28;20053;-77
2024/01/29 02:37:51;;;;;;;17.92;9.88;;;;;;;;;;4966013;28;20047;-76
2024/01/29 02:40:18;;;;;;;14.35;9.10;;;;;;;;;;4964054;28;20030;-76
2024/01/29 02:42:44;;;;;;;19.70;10.48;;;;;;;;;;4962795;28;20042;-76
2024/01/29 02:45:10;;;;;;;17.05;10.48;;;;;;;;;;4965310;28;20090;-75
2024/01/29 02:47:37;;;;;;;17.75;10.02;;;;;;;;;;4965569;28;20019;-76
2024/01/29 02:50:03;;;;;;;22.33;11.30;;;;;;;;;;4969964;28;20031;-75
2024/01/29 02:52:29;;;;;;;20.70;10.65;;;;;;;;;;4965865;28;20823;-77
2024/01/29 02:54:55;;;;;;;20.20;10.18;;;;;;;;;;4970221;28;20066;-76
2024/01/29 02:57:24;;;;;;;22.25;10.60;;;;;;;;;;4967645;28;20125;-77
2024/01/29 02:59:50;;;;;;;18.05;10.13;;;;;;;;;;4993990;28;20031;-77
2024/01/29 03:02:16;;;;;;;19.38;10.68;;;;;;;;;;4969077;28;20043;-77
2024/01/29 03:04:43;;;;;;;18.67;10.23;;;;;;;;;;4972805;28;20775;-76
2024/01/29 03:07:09;;;;;;;18.50;10.88;;;;;;;;;;4994201;28;20062;-77
2024/01/29 03:09:35;;;;;;;19.55;10.85;;;;;;;;;;4970936;28;20059;-77
2024/01/29 03:12:02;;;;;;;17.80;10.50;;;;;;;;;;4971928;28;20062;-77
2024/01/29 03:14:28;;;;;;;18.65;11.10;;;;;;;;;;4968969;28;20050;-77
2024/01/29 03:16:54;;;;;;;16.15;10.93;;;;;;;;;;4967339;28;20047;-76
2024/01/29 03:19:20;;;;;;;17.27;10.75;;;;;;;;;;4968993;28;20042;-75
2024/01/29 03:21:47;;;;;;;18.45;11.15;;;;;;;;;;4971101;28;20058;-78
2024/01/29 03:24:14;;;;;;;17.88;11.82;;;;;;;;;;4967286;28;20045;-76
2024/01/29 03:26:40;;;;;;;21.73;11.52;;;;;;;;;;4969014;28;20029;-76
2024/01/29 03:29:06;;;;;;;20.40;11.57;;;;;;;;;;4965718;28;20050;-77
2024/01/29 03:31:32;;;;;;;19.88;11.35;;;;;;;;;;4965148;28;20063;-76
2024/01/29 03:33:58;;;;;;;21.27;11.45;;;;;;;;;;4967940;28;20035;-76
2024/01/29 03:36:24;;;;;;;18.05;11.38;;;;;;;;;;4967312;28;20173;-77
2024/01/29 03:38:51;;;;;;;19.30;11.07;;;;;;;;;;4967539;28;20031;-77
2024/01/29 03:41:17;;;;;;;20.30;11.80;;;;;;;;;;4991260;28;20039;-76
2024/01/29 03:43:43;;;;;;;20.20;11.35;;;;;;;;;;4966973;28;20145;-77
2024/01/29 03:46:09;;;;;;;17.52;11.05;;;;;;;;;;4967983;28;20026;-77
2024/01/29 03:48:36;;;;;;;19.17;12.45;;;;;;;;;;4965992;28;20062;-76
2024/01/29 03:51:02;;;;;;;16.83;11.13;;;;;;;;;;4971376;28;20046;-76
2024/01/29 03:53:28;;;;;;;18.88;11.50;;;;;;;;;;4962709;28;20035;-77
2024/01/29 03:55:55;;;;;;;20.83;12.45;;;;;;;;;;4976268;28;20507;-76
2024/01/29 03:58:21;;;;;;;21.67;12.32;;;;;;;;;;4963978;28;20030;-76
2024/01/29 04:00:47;;;;;;;21.00;12.65;;;;;;;;;;4964112;28;20027;-77
2024/01/29 04:03:13;;;;;;;24.67;13.40;;;;;;;;;;4964366;28;20161;-76
2024/01/29 04:05:39;;;;;;;22.50;12.60;;;;;;;;;;4968335;28;20421;-76
2024/01/29 04:08:06;;;;;;;18.75;11.77;;;;;;;;;;4968185;28;20027;-77
2024/01/29 04:10:32;;;;;;;20.42;12.30;;;;;;;;;;4969110;28;21325;-76
2024/01/29 04:12:58;;;;;;;20.95;12.00;;;;;;;;;;4991510;28;20031;-76
2024/01/29 04:15:24;;;;;;;20.55;12.57;;;;;;;;;;4961638;28;20039;-77
2024/01/29 04:17:50;;;;;;;18.73;11.90;;;;;;;;;;4969480;28;20031;-76
2024/01/29 04:20:16;;;;;;;21.88;13.18;;;;;;;;;;4964264;28;20041;-77
2024/01/29 04:22:42;;;;;;;21.10;12.25;;;;;;;;;;4966163;28;20041;-76
2024/01/29 04:25:09;;;;;;;21.05;12.63;;;;;;;;;;4969112;28;20070;-76
2024/01/29 04:27:35;;;;;;;22.05;12.50;;;;;;;;;;4968081;28;20437;-76
2024/01/29 04:30:02;;;;;;;24.63;12.05;;;;;;;;;;4968713;28;20042;-76
2024/01/29 04:32:29;;;;;;;19.48;12.60;;;;;;;;;;4989244;28;20116;-76
2024/01/29 04:34:55;;;;;;;25.60;13.02;;;;;;;;;;4967338;28;20035;-76
2024/01/29 04:37:21;;;;;;;20.40;12.32;;;;;;;;;;4997632;28;20058;-76
2024/01/29 04:39:47;;;;;;;27.27;13.80;;;;;;;;;;4966247;28;20027;-77
2024/01/29 04:42:13;;;;;;;34.05;15.98;;;;;;;;;;4964210;28;20071;-77
2024/01/29 04:44:39;;;;;;;26.77;16.02;;;;;;;;;;4971442;28;20039;-76
2024/01/29 04:47:06;;;;;;;22.77;14.40;;;;;;;;;;4970303;28;20152;-77
2024/01/29 04:49:32;;;;;;;21.85;12.95;;;;;;;;;;4966198;28;20424;-77
2024/01/29 04:51:58;;;;;;;28.05;15.07;;;;;;;;;;4962358;28;20042;-76
2024/01/29 04:54:24;;;;;;;20.73;12.82;;;;;;;;;;4964216;28;20222;-75
2024/01/29 04:56:50;;;;;;;24.30;13.93;;;;;;;;;;4964326;28;20534;-76
2024/01/29 04:59:17;;;;;;;19.25;12.45;;;;;;;;;;4969857;28;20149;-76
2024/01/29 05:01:43;;;;;;;19.75;12.63;;;;;;;;;;4992444;28;20196;-76
2024/01/29 05:04:09;;;;;;;24.55;13.73;;;;;;;;;;4967555;28;20031;-76
2024/01/29 05:06:35;;;;;;;20.75;12.85;;;;;;;;;;4968316;28;20496;-76
2024/01/29 05:09:02;;;;;;;27.08;14.05;;;;;;;;;;4968110;28;20038;-76
2024/01/29 05:11:29;;;;;;;23.80;13.93;;;;;;;;;;4969793;28;20034;-76
2024/01/29 05:13:56;;;;;;;23.40;13.77;;;;;;;;;;4969580;28;20038;-77
2024/01/29 05:16:23;;;;;;;24.83;14.02;;;;;;;;;;4970586;28;20039;-76
2024/01/29 05:18:49;;;;;;;20.90;12.85;;;;;;;;;;4968735;28;20023;-77
2024/01/29 05:21:15;;;;;;;27.70;13.95;;;;;;;;;;4968789;28;20023;-76
2024/01/29 05:23:41;;;;;;;23.42;14.07;;;;;;;;;;4969688;28;20089;-76
2024/01/29 05:26:08;;;;;;;20.67;13.02;;;;;;;;;;4995453;28;20034;-76
2024/01/29 05:28:34;;;;;;;23.08;13.88;;;;;;;;;;4968592;28;20455;-77
2024/01/29 05:31:00;;;;;;;20.85;14.23;;;;;;;;;;4969425;28;20027;-77
2024/01/29 05:33:26;;;;;;;21.20;14.23;;;;;;;;;;4965508;28;20038;-77
2024/01/29 05:35:52;;;;;;;23.95;14.27;;;;;;;;;;4968471;28;20049;-76
2024/01/29 05:38:19;;;;;;;25.35;14.75;;;;;;;;;;4968189;28;20035;-77
2024/01/29 05:40:45;;;;;;;25.50;14.68;;;;;;;;;;4968119;28;20407;-77
2024/01/29 05:43:12;;;;;;;23.75;13.60;;;;;;;;;;4969226;28;20039;-77
2024/01/29 05:45:38;;;;;;;24.73;14.07;;;;;;;;;;4967908;28;20035;-76
2024/01/29 05:48:07;;;;;;;25.83;14.02;;;;;;;;;;4969782;28;20400;-74
2024/01/29 05:50:33;;;;;;;22.60;14.38;;;;;;;;;;4969121;28;20634;-76
2024/01/29 05:52:59;;;;;;;22.15;13.15;;;;;;;;;;4968118;28;20027;-77
2024/01/29 05:55:25;;;;;;;24.02;13.98;;;;;;;;;;4969661;28;20042;-76
2024/01/29 05:57:51;;;;;;;21.88;13.45;;;;;;;;;;4969823;28;20058;-76
2024/01/29 06:00:18;;;;;;;23.98;13.43;;;;;;;;;;4969964;28;20541;-76
2024/01/29 06:02:46;;;;;;;21.20;13.68;;;;;;;;;;4969878;28;20031;-76
2024/01/29 06:05:13;;;;;;;21.10;13.55;;;;;;;;;;4963996;28;20514;-76
2024/01/29 06:07:40;;;;;;;20.95;13.50;;;;;;;;;;4967674;28;20034;-76
2024/01/29 06:10:08;;;;;;;22.73;13.30;;;;;;;;;;4969268;28;20126;-77
2024/01/29 06:12:34;;;;;;;23.80;13.38;;;;;;;;;;4965135;28;20031;-76
2024/01/29 06:15:02;;;;;;;21.48;13.52;;;;;;;;;;4968117;28;20070;-75
2024/01/29 06:17:29;;;;;;;24.23;13.15;;;;;;;;;;4968039;28;20061;-76
2024/01/29 06:19:55;;;;;;;24.13;12.63;;;;;;;;;;4970461;28;20034;-75
2024/01/29 06:22:21;;;;;;;25.52;13.98;;;;;;;;;;4971174;28;20108;-77
2024/01/29 06:24:47;;;;;;;23.10;14.18;;;;;;;;;;4970039;28;20030;-77
2024/01/29 06:27:13;;;;;;;27.17;14.93;;;;;;;;;;4970493;28;20058;-76
2024/01/29 06:29:40;;;;;;;23.60;15.15;;;;;;;;;;5001683;28;20110;-76
2024/01/29 06:32:06;;;;;;;31.60;14.75;;;;;;;;;;4998438;28;20039;-75
2024/01/29 06:34:34;;;;;;;24.60;15.15;;;;;;;;;;4970319;28;20058;-77
2024/01/29 06:37:00;;;;;;;22.75;13.15;;;;;;;;;;4971975;28;20066;-77
2024/01/29 06:39:26;;;;;;;19.83;13.35;;;;;;;;;;4972592;28;20035;-77
2024/01/29 06:41:53;;;;;;;20.52;12.85;;;;;;;;;;4972131;28;20085;-77
2024/01/29 06:44:19;;;;;;;22.95;13.65;;;;;;;;;;4972375;28;20121;-76
2024/01/29 06:46:45;;;;;;;19.00;13.00;;;;;;;;;;4968272;28;20034;-77
2024/01/29 06:49:25;;;;;;;20.98;13.18;;;;;;;;;;4972070;28;20172;-77
2024/01/29 06:51:51;;;;;;;19.83;13.30;;;;;;;;;;4971114;28;20125;-77
2024/01/29 06:54:17;;;;;;;21.98;14.10;;;;;;;;;;4962357;28;20493;-78
2024/01/29 06:56:43;;;;;;;24.50;13.07;;;;;;;;;;4972457;28;20117;-77
2024/01/29 06:59:10;;;;;;;20.35;13.40;;;;;;;;;;4970754;28;20456;-77
2024/01/29 07:01:37;;;;;;;22.92;13.40;;;;;;;;;;4962661;28;20042;-77
2024/01/29 07:04:04;;;;;;;22.92;13.95;;;;;;;;;;4973242;28;20041;-76
2024/01/29 07:06:30;;;;;;;20.15;12.75;;;;;;;;;;4970066;28;20062;-76
2024/01/29 07:08:56;;;;;;;25.20;13.85;;;;;;;;;;4987434;28;20031;-76
2024/01/29 07:11:22;;;;;;;20.17;13.13;;;;;;;;;;4973374;28;20118;-76
2024/01/29 07:13:48;;;;;;;23.15;13.45;;;;;;;;;;4972202;28;20480;-76
2024/01/29 07:16:15;;;;;;;21.73;13.05;;;;;;;;;;4973081;28;20030;-78
2024/01/29 07:18:41;;;;;;;19.25;13.05;;;;;;;;;;4972509;28;20043;-77
2024/01/29 07:21:09;;;;;;;23.60;13.70;;;;;;;;;;4969138;28;20039;-77
2024/01/29 07:23:35;;;;;;;23.27;14.10;;;;;;;;;;4972266;28;20046;-76
2024/01/29 07:26:02;;;;;;;23.98;13.55;;;;;;;;;;4955278;28;20042;-77
2024/01/29 07:28:28;;;;;;;23.25;15.57;;;;;;;;;;4972835;28;20129;-79
2024/01/29 07:30:54;;;;;;;27.48;14.00;;;;;;;;;;4970128;28;20027;-76
2024/01/29 07:33:20;;;;;;;19.75;13.82;;;;;;;;;;4972865;28;20058;-78
2024/01/29 07:35:48;;;;;;;19.58;13.38;;;;;;;;;;4959957;28;20457;-77
2024/01/29 07:38:14;;;;;;;18.70;12.90;;;;;;;;;;4967097;28;20150;-77
2024/01/29 07:40:41;;;;;;;21.48;13.27;;;;;;;;;;4953778;28;20036;-76
2024/01/29 07:43:07;;;;;;;25.70;14.00;;;;;;;;;;4953341;29;20062;-77
2024/01/29 07:45:34;;;;;;;20.75;13.85;;;;;;;;;;4953036;29;20034;-76
2024/01/29 07:48:00;;;;;;;22.77;13.95;;;;;;;;;;4983699;28;20039;-78
2024/01/29 07:50:26;;;;;;;27.50;14.25;;;;;;;;;;4953674;28;20047;-76
2024/01/29 07:52:56;;;;;;;25.65;15.10;;;;;;;;;;4952209;29;20035;-77
2024/01/29 07:55:23;;;;;;;31.70;14.77;;;;;;;;;;4951655;28;20138;-77
2024/01/29 07:57:49;;;;;;;24.83;14.32;;;;;;;;;;4954641;28;20054;-77
2024/01/29 08:00:16;;;;;;;23.95;13.55;;;;;;;;;;5003026;28;20035;-76
2024/01/29 08:02:42;;;;;;;24.75;14.60;;;;;;;;;;4971807;28;20077;-76
2024/01/29 08:05:08;;;;;;;22.77;14.02;;;;;;;;;;4971219;28;20031;-77
2024/01/29 08:07:35;;;;;;;24.65;13.95;;;;;;;;;;4974253;28;20026;-78
2024/01/29 08:10:03;;;;;;;24.40;14.90;;;;;;;;;;4971363;28;20039;-77
2024/01/29 08:12:29;;;;;;;23.92;13.90;;;;;;;;;;4971828;28;20031;-76
2024/01/29 08:14:56;;;;;;;24.35;13.82;;;;;;;;;;4986656;28;20117;-76
2024/01/29 08:17:22;;;;;;;28.50;15.02;;;;;;;;;;4969177;28;20043;-77
2024/01/29 08:19:48;;;;;;;20.67;13.20;;;;;;;;;;4972288;28;20039;-76
2024/01/29 08:22:15;;;;;;;22.15;13.85;;;;;;;;;;4954056;28;20067;-77
2024/01/29 08:24:41;;;;;;;25.55;13.88;;;;;;;;;;4953089;29;20127;-77
2024/01/29 08:27:07;;;;;;;24.63;14.20;;;;;;;;;;4953313;28;20090;-76
2024/01/29 08:29:33;;;;;;;24.10;13.98;;;;;;;;;;4951868;29;20390;-77
2024/01/29 08:31:59;;;;;;;23.58;14.10;;;;;;;;;;4952373;29;20073;-76
2024/01/29 08:34:29;;;;;;;24.95;14.50;;;;;;;;;;4967436;28;20023;-77
2024/01/29 08:36:56;;;;;;;27.60;15.00;;;;;;;;;;4953210;28;20042;-77
2024/01/29 08:39:22;;;;;;;25.60;14.65;;;;;;;;;;4952476;29;20130;-77
2024/01/29 08:41:48;;;;;;;24.63;14.80;;;;;;;;;;4991075;28;20116;-77
2024/01/29 08:44:15;;;;;;;24.27;14.40;;;;;;;;;;4970875;28;20054;-76
2024/01/29 08:46:41;;;;;;;21.48;13.52;;;;;;;;;;5002681;28;20038;-76
2024/01/29 08:49:08;;;;;;;21.52;14.35;;;;;;;;;;4970163;28;20181;-76
2024/01/29 08:51:34;;;;;;;23.15;14.43;;;;;;;;;;5001006;28;20039;-77
2024/01/29 08:54:00;;;;;;;25.33;14.23;;;;;;;;;;5002312;28;20049;-76
2024/01/29 08:56:27;;;;;;;23.35;14.23;;;;;;;;;;5002259;28;20035;-76
2024/01/29 08:58:53;;;;;;;24.13;14.65;;;;;;;;;;4954687;28;20035;-77
2024/01/29 09:01:19;;;;;;;23.85;13.98;;;;;;;;;;4934694;28;20027;-76
2024/01/29 09:03:45;;;;;;;23.88;14.35;;;;;;;;;;4951134;28;20035;-76
2024/01/29 09:06:12;;;;;;;22.10;13.30;;;;;;;;;;4955477;28;20026;-77
2024/01/29 09:08:38;;;;;;;24.40;13.60;;;;;;;;;;4970700;28;20031;-76
2024/01/29 09:11:04;;;;;;;21.30;13.80;;;;;;;;;;4970131;28;20101;-76
2024/01/29 09:13:30;;;;;;;23.40;14.25;;;;;;;;;;5000778;28;20039;-76
2024/01/29 09:15:56;;;;;;;20.55;13.75;;;;;;;;;;5001844;28;20070;-76
2024/01/29 09:18:23;;;;;;;22.65;14.13;;;;;;;;;;4970769;28;20133;-76
2024/01/29 09:20:50;;;;;;;25.58;15.50;;;;;;;;;;4985292;28;20079;-77
2024/01/29 09:23:16;;;;;;;21.02;14.50;;;;;;;;;;4951469;28;20032;-76
2024/01/29 09:25:42;;;;;;;25.50;14.50;;;;;;;;;;4951828;29;20122;-76
2024/01/29 09:28:08;;;;;;;19.05;13.27;;;;;;;;;;4950554;29;20063;-77
2024/01/29 09:30:35;;;;;;;27.10;13.98;;;;;;;;;;4963859;28;20034;-77
2024/01/29 09:33:01;;;;;;;25.20;14.88;;;;;;;;;;4988922;28;20041;-76
2024/01/29 09:35:27;;;;;;;25.38;15.05;;;;;;;;;;4989177;28;20052;-77
2024/01/29 09:37:54;;;;;;;21.35;13.77;;;;;;;;;;4974455;28;20516;-76
2024/01/29 09:40:20;;;;;;;20.45;13.35;;;;;;;;;;4970334;28;20035;-76
2024/01/29 09:42:50;;;;;;;25.05;14.75;;;;;;;;;;4970932;28;20051;-77
2024/01/29 09:45:22;;;;;;;21.87;14.50;;;;;;;;;;4969538;28;20542;-77
2024/01/29 09:47:50;;;;;;;21.77;14.95;;;;;;;;;;4979485;28;20027;-77
2024/01/29 09:50:16;;;;;;;25.45;15.70;;;;;;;;;;4989680;28;20376;-77
2024/01/29 09:52:43;;;;;;;25.55;14.40;;;;;;;;;;4978225;28;20045;-77
2024/01/29 09:55:11;;;;;;;22.27;14.00;;;;;;;;;;4972246;28;20038;-76
2024/01/29 09:57:38;;;;;;;22.95;14.95;;;;;;;;;;4974310;28;20554;-76
2024/01/29 10:00:04;;;;;;;19.92;14.15;;;;;;;;;;4972644;28;20404;-77
2024/01/29 10:02:34;;;;;;;22.20;14.23;;;;;;;;;;4973117;28;20046;-77
2024/01/29 10:05:00;;;;;;;22.42;13.52;;;;;;;;;;4972996;28;20035;-76
2024/01/29 10:07:26;;;;;;;25.50;14.50;;;;;;;;;;4982016;28;20086;-76
2024/01/29 10:09:54;;;;;;;22.42;14.93;;;;;;;;;;4994388;28;20038;-76
2024/01/29 10:12:26;;;;;;;23.63;14.38;;;;;;;;;;4974488;28;20042;-76
2024/01/29 10:14:55;;;;;;;22.70;14.60;;;;;;;;;;4972892;28;20035;-78
2024/01/29 10:17:24;;;;;;;27.20;16.08;;;;;;;;;;4974150;28;20110;-78
2024/01/29 10:19:51;;;;;;;23.13;15.25;;;;;;;;;;4973995;28;20062;-77
2024/01/29 10:22:23;;;;;;;27.60;15.45;;;;;;;;;;4971223;28;20637;-75
2024/01/29 10:24:59;;;;;;;23.55;14.70;;;;;;;;;;4954662;28;20037;-77
2024/01/29 10:27:25;;;;;;;22.23;14.40;;;;;;;;;;4954399;28;20043;-77
2024/01/29 10:29:51;;;;;;;25.20;14.75;;;;;;;;;;4954550;29;20075;-77
2024/01/29 10:32:17;;;;;;;26.98;15.20;;;;;;;;;;4953994;29;20044;-77
2024/01/29 10:34:44;;;;;;;28.60;15.27;;;;;;;;;;4954124;29;20119;-77
2024/01/29 10:37:11;;;;;;;22.90;14.88;;;;;;;;;;4953517;28;20118;-77
2024/01/29 10:39:39;;;;;;;22.77;14.52;;;;;;;;;;4969783;28;20059;-79
2024/01/29 10:42:05;;;;;;;23.63;14.68;;;;;;;;;;4954338;28;20100;-76
2024/01/29 10:44:35;;;;;;;21.73;14.75;;;;;;;;;;4954631;29;20047;-77
2024/01/29 10:47:03;;;;;;;22.35;15.18;;;;;;;;;;4954471;29;20027;-77
2024/01/29 10:49:30;;;;;;;24.85;14.38;;;;;;;;;;4954965;29;20074;-77
2024/01/29 10:51:57;;;;;;;22.75;14.85;;;;;;;;;;4957799;28;20109;-77
2024/01/29 10:54:23;;;;;;;26.08;15.88;;;;;;;;;;4973641;28;20039;-77
2024/01/29 10:56:51;;;;;;;24.42;15.27;;;;;;;;;;4974151;28;20051;-77
2024/01/29 10:59:20;;;;;;;28.83;15.73;;;;;;;;;;4973568;28;20026;-78
2024/01/29 11:01:46;;;;;;;23.98;15.55;;;;;;;;;;4973682;28;20105;-77
2024/01/29 11:04:16;;;;;;;30.75;15.38;;;;;;;;;;4973168;28;20098;-77
2024/01/29 11:06:52;;;;;;;26.02;15.00;;;;;;;;;;4973207;28;20030;-77
2024/01/29 11:09:20;;;;;;;28.42;15.85;;;;;;;;;;4972987;28;20090;-77
2024/01/29 11:11:48;;;;;;;24.88;15.40;;;;;;;;;;4972954;28;20038;-78
2024/01/29 11:14:19;;;;;;;23.58;14.40;;;;;;;;;;4973007;28;20097;-76
2024/01/29 11:16:45;;;;;;;;;;;;;;;;;;4973700;28;20039;-77
2024/01/29 11:19:11;;;;;;;26.92;15.32;;;;;;;;;;4972755;28;19997;-76
2024/01/29 11:21:44;;;;;;;30.13;16.58;;;;;;;;;;4965414;28;20048;-78
2024/01/29 11:24:11;;;;;;;23.63;15.55;;;;;;;;;;4954168;28;20130;-77
2024/01/29 11:26:38;;;;;;;26.70;16.23;;;;;;;;;;4952490;28;20024;-76
2024/01/29 11:29:06;;;;;;;24.65;16.48;;;;;;;;;;4984991;28;20039;-77
2024/01/29 11:31:43;;;;;;;26.77;15.50;;;;;;;;;;4952986;29;20045;-77
2024/01/29 11:34:09;;;;;;;27.88;17.60;;;;;;;;;;4953755;28;20122;-75
2024/01/29 11:36:38;;;;;;;27.55;17.30;;;;;;;;;;4953676;28;20035;-77
2024/01/29 11:39:14;;;;;;;26.45;16.45;;;;;;;;;;4951899;29;20083;-77
2024/01/29 11:41:48;;;;;;;26.08;16.45;;;;;;;;;;4953336;28;20039;-77
2024/01/29 11:44:17;;;;;;;25.92;16.80;;;;;;;;;;4953637;29;20102;-76
2024/01/29 11:46:43;;;;;;;27.73;17.83;;;;;;;;;;4953584;29;20027;-77
2024/01/29 11:49:09;;;;;;;27.45;17.15;;;;;;;;;;4952539;29;20130;-76
2024/01/29 11:51:35;;;;;;;24.65;16.33;;;;;;;;;;4980605;28;20062;-76
2024/01/29 11:54:02;;;;;;;25.50;15.85;;;;;;;;;;4971361;28;20089;-77
2024/01/29 11:56:28;;;;;;;26.80;16.77;;;;;;;;;;4972103;28;20126;-77
2024/01/29 11:59:01;;;;;;;27.27;16.63;;;;;;;;;;5004227;28;20034;-77
2024/01/29 12:01:28;;;;;;;30.20;16.58;;;;;;;;;;4972830;28;20055;-77
2024/01/29 12:03:54;;;;;;;25.13;17.08;;;;;;;;;;4971603;28;20034;-77
2024/01/29 12:06:21;;;;;;;32.58;16.23;;;;;;;;;;4953031;28;20452;-76
2024/01/29 12:08:47;;;;;;;25.90;15.98;;;;;;;;;;4953022;28;20485;-77
2024/01/29 12:11:16;;;;;;;26.45;16.35;;;;;;;;;;4983242;28;20075;-75
2024/01/29 12:13:42;;;;;;;29.58;17.15;;;;;;;;;;4953015;29;20034;-78
2024/01/29 12:16:09;;;;;;;26.35;16.27;;;;;;;;;;4952279;28;20070;-77
2024/01/29 12:18:38;;;;;;;26.30;17.13;;;;;;;;;;4952631;29;20321;-76
2024/01/29 12:21:05;;;;;;;25.42;16.85;;;;;;;;;;4965572;28;20403;-77
2024/01/29 12:23:31;;;;;;;29.83;16.20;;;;;;;;;;4971554;28;20031;-79
2024/01/29 12:25:58;;;;;;;26.92;16.25;;;;;;;;;;4971921;28;20449;-77
2024/01/29 12:28:25;;;;;;;26.30;15.82;;;;;;;;;;4970645;28;20037;-76
2024/01/29 12:30:56;;;;;;;28.52;15.52;;;;;;;;;;4972029;28;20022;-77
2024/01/29 12:33:30;;;;;;;22.80;14.73;;;;;;;;;;4972294;28;20053;-75
2024/01/29 12:35:57;;;;;;;22.30;14.48;;;;;;;;;;4972608;28;20039;-77
2024/01/29 12:38:24;;;;;;;21.58;13.68;;;;;;;;;;4971954;28;20061;-78
2024/01/29 12:40:56;;;;;;;22.38;14.00;;;;;;;;;;4972790;28;20031;-75
2024/01/29 12:43:29;;;;;;;18.67;13.82;;;;;;;;;;4974120;28;20481;-77
2024/01/29 12:46:05;;;;;;;22.05;13.68;;;;;;;;;;4970923;28;20035;-77
2024/01/29 12:48:31;;;;;;;21.48;14.32;;;;;;;;;;4966231;28;20030;-76
2024/01/29 12:50:57;;;;;;;22.60;13.68;;;;;;;;;;4971314;28;20054;-77
2024/01/29 12:53:23;;;;;;;25.67;13.90;;;;;;;;;;4996328;28;20129;-77
2024/01/29 12:55:50;;;;;;;19.70;12.98;;;;;;;;;;4970799;28;20112;-78
2024/01/29 12:58:17;;;;;;;22.25;13.57;;;;;;;;;;4969215;28;20564;-79
2024/01/29 13:00:44;;;;;;;19.20;14.00;;;;;;;;;;4969492;28;20041;-77
2024/01/29 13:03:11;;;;;;;17.08;12.55;;;;;;;;;;4971580;28;20301;-76
2024/01/29 13:05:37;;;;;;;21.70;14.15;;;;;;;;;;4970939;28;20178;-77
2024/01/29 13:08:04;;;;;;;21.00;13.55;;;;;;;;;;4972189;28;20066;-77
2024/01/29 13:10:30;;;;;;;19.33;12.68;;;;;;;;;;4970388;28;20117;-77
2024/01/29 13:12:57;;;;;;;21.48;13.68;;;;;;;;;;4971772;28;20057;-76
2024/01/29 13:15:23;;;;;;;22.25;14.30;;;;;;;;;;4961040;28;20039;-75
2024/01/29 13:17:49;;;;;;;21.60;13.57;;;;;;;;;;4953042;28;20036;-77
2024/01/29 13:20:15;;;;;;;20.85;14.10;;;;;;;;;;4964390;28;20031;-78
2024/01/29 13:22:42;;;;;;;22.48;13.20;;;;;;;;;;4969522;28;20056;-75
2024/01/29 13:25:09;;;;;;;20.38;13.90;;;;;;;;;;4953582;28;20034;-76
2024/01/29 13:27:35;;;;;;;19.67;13.40;;;;;;;;;;4970151;28;20034;-78
2024/01/29 13:30:02;;;;;;;21.80;13.63;;;;;;;;;;4968081;28;20042;-77
2024/01/29 13:32:28;;;;;;;21.20;14.30;;;;;;;;;;4970690;28;20053;-77
2024/01/29 13:34:54;;;;;;;22.08;14.48;;;;;;;;;;4968688;28;20051;-79
2024/01/29 13:37:20;;;;;;;20.98;13.38;;;;;;;;;;4951454;29;20027;-77
2024/01/29 13:39:47;;;;;;;22.25;13.50;;;;;;;;;;4965257;28;20054;-77
2024/01/29 13:42:13;;;;;;;21.55;14.30;;;;;;;;;;4969085;28;20034;-76
2024/01/29 13:44:39;;;;;;;20.98;14.30;;;;;;;;;;4970151;28;20030;-78
2024/01/29 13:47:05;;;;;;;21.67;14.48;;;;;;;;;;4969699;28;20015;-77
2024/01/29 13:49:31;;;;;;;24.25;15.02;;;;;;;;;;4966209;28;20058;-77
2024/01/29 13:51:57;;;;;;;19.33;14.02;;;;;;;;;;4966570;28;20516;-77
2024/01/29 13:54:24;;;;;;;25.13;14.65;;;;;;;;;;4965050;28;20049;-77
2024/01/29 13:56:51;;;;;;;25.90;15.13;;;;;;;;;;4969600;28;20061;-77
2024/01/29 13:59:17;;;;;;;23.63;14.82;;;;;;;;;;4970866;28;20026;-78
2024/01/29 14:01:43;;;;;;;25.42;15.00;;;;;;;;;;4972419;28;20038;-78
2024/01/29 14:04:09;;;;;;;23.88;15.00;;;;;;;;;;4980783;28;20035;-76
2024/01/29 14:06:35;;;;;;;26.88;15.15;;;;;;;;;;4971321;28;20038;-77
2024/01/29 14:09:01;;;;;;;24.35;15.93;;;;;;;;;;4969523;28;20018;-77
2024/01/29 14:11:30;;;;;;;26.98;16.58;;;;;;;;;;4969718;28;20035;-77
2024/01/29 14:13:56;;;;;;;23.27;14.90;;;;;;;;;;4969989;28;20038;-79
2024/01/29 14:16:23;;;;;;;24.40;15.57;;;;;;;;;;4969607;28;20562;-77